createdAt,value
2018-02-23T00:01:01.805Z,29.17
2018-02-23T00:03:30.921Z,20.00
2018-02-23T00:05:59.259Z,17.00
2018-02-23T00:08:27.591Z,15.40
2018-02-23T00:10:55.906Z,21.08
2018-02-23T00:13:24.226Z,16.50
2018-02-23T00:15:52.556Z,19.15
2018-02-23T00:18:20.883Z,17.42
2018-02-23T00:20:49.310Z,17.20
2018-02-23T00:23:17.623Z,15.38
2018-02-23T00:25:46.709Z,15.82
2018-02-23T00:28:15.022Z,24.95
2018-02-23T00:30:43.400Z,23.85
2018-02-23T00:33:11.734Z,16.77
2018-02-23T00:35:40.052Z,16.92
2018-02-23T00:38:08.383Z,19.35
2018-02-23T00:40:36.715Z,17.48
2018-02-23T00:43:05.091Z,22.50
2018-02-23T00:45:33.486Z,15.35
2018-02-23T00:48:01.810Z,15.07
2018-02-23T00:50:30.930Z,20.85
2018-02-23T00:52:59.252Z,22.67
2018-02-23T00:55:27.655Z,17.95
2018-02-23T00:57:55.976Z,17.73
2018-02-23T01:00:24.296Z,18.85
2018-02-23T01:02:52.650Z,20.88
2018-02-23T01:05:20.975Z,22.00
2018-02-23T01:07:50.150Z,17.52
2018-02-23T01:10:18.473Z,18.52
2018-02-23T01:12:46.798Z,18.50
2018-02-23T01:15:15.142Z,19.92
2018-02-23T01:17:43.466Z,21.80
2018-02-23T01:20:11.887Z,21.60
2018-02-23T01:22:40.222Z,21.27
2018-02-23T01:25:08.528Z,18.10
2018-02-23T01:27:36.887Z,20.90
2018-02-23T01:30:05.992Z,18.17
2018-02-23T01:32:34.324Z,26.60
2018-02-23T01:35:02.651Z,18.42
2018-02-23T01:37:30.979Z,19.70
2018-02-23T01:40:00.103Z,25.10
2018-02-23T01:42:28.471Z,21.20
2018-02-23T01:44:56.863Z,27.35
2018-02-23T01:47:25.940Z,20.58
2018-02-23T01:49:54.335Z,27.85
2018-02-23T01:52:23.433Z,21.77
2018-02-23T01:54:52.553Z,23.48
2018-02-23T01:57:20.899Z,15.95
2018-02-23T01:59:49.987Z,16.95
2018-02-23T02:02:18.323Z,20.95
2018-02-23T02:04:46.632Z,16.45
2018-02-23T02:07:15.043Z,22.50
2018-02-23T02:09:43.386Z,24.58
2018-02-23T02:12:11.675Z,28.80
2018-02-23T02:14:40.021Z,20.00
2018-02-23T02:17:08.367Z,23.33
2018-02-23T02:19:36.779Z,23.85
2018-02-23T02:22:05.147Z,21.75
2018-02-23T02:24:33.533Z,20.90
2018-02-23T02:27:01.900Z,19.15
2018-02-23T02:29:30.176Z,25.52
2018-02-23T02:31:58.515Z,26.12
2018-02-23T02:34:27.607Z,20.98
2018-02-23T02:36:55.971Z,21.65
2018-02-23T02:39:24.338Z,20.80
2018-02-23T02:41:52.688Z,27.92
2018-02-23T02:44:21.089Z,23.98
2018-02-23T02:46:49.414Z,21.08
2018-02-23T02:49:17.775Z,27.67
2018-02-23T02:51:46.941Z,18.30
2018-02-23T02:54:15.257Z,22.83
2018-02-23T02:56:43.579Z,17.87
2018-02-23T02:59:11.911Z,25.60
2018-02-23T03:01:40.301Z,22.10
2018-02-23T03:04:08.645Z,25.27
2018-02-23T03:06:36.952Z,19.85
2018-02-23T03:09:05.287Z,20.90
2018-02-23T03:11:33.634Z,29.58
2018-02-23T03:14:01.968Z,24.55
2018-02-23T03:16:31.058Z,21.75
2018-02-23T03:19:00.139Z,22.45
2018-02-23T03:21:28.471Z,22.10
2018-02-23T03:23:56.808Z,27.55
2018-02-23T03:26:25.142Z,24.05
2018-02-23T03:28:53.470Z,30.65
2018-02-23T03:31:22.564Z,38.03
2018-02-23T03:33:51.624Z,25.37
2018-02-23T03:36:19.972Z,22.10
2018-02-23T03:38:48.307Z,24.42
2018-02-23T03:41:17.394Z,21.87
2018-02-23T03:43:46.478Z,32.28
2018-02-23T03:46:14.882Z,24.67
2018-02-23T03:48:43.983Z,21.45
2018-02-23T03:51:12.326Z,23.30
2018-02-23T03:53:40.644Z,29.58
2018-02-23T03:56:09.010Z,29.80
2018-02-23T03:58:38.096Z,23.58
2018-02-23T04:01:07.242Z,25.95
2018-02-23T04:03:35.612Z,28.25
2018-02-23T04:06:03.915Z,22.20
2018-02-23T04:08:32.279Z,28.12
2018-02-23T04:11:00.628Z,24.90
2018-02-23T04:13:28.968Z,31.87
2018-02-23T04:15:57.298Z,29.15
2018-02-23T04:18:25.651Z,32.30
2018-02-23T04:20:54.029Z,25.12
2018-02-23T04:23:22.413Z,29.87
2018-02-23T04:25:51.469Z,29.17
2018-02-23T04:28:19.831Z,29.25
2018-02-23T04:30:48.169Z,28.83
2018-02-23T04:33:16.510Z,27.73
2018-02-23T04:35:45.618Z,24.42
2018-02-23T04:38:13.935Z,23.20
2018-02-23T04:40:42.298Z,29.25
2018-02-23T04:43:10.626Z,34.70
2018-02-23T04:45:38.950Z,30.67
2018-02-23T04:48:07.330Z,29.37
2018-02-23T04:50:35.674Z,33.72
2018-02-23T04:53:04.843Z,30.83
2018-02-23T04:55:33.205Z,27.90
2018-02-23T04:58:01.499Z,25.70
2018-02-23T05:00:29.873Z,33.70
2018-02-23T05:02:58.198Z,26.52
2018-02-23T05:05:26.526Z,25.95
2018-02-23T05:07:54.855Z,27.08
2018-02-23T05:10:23.170Z,31.27
2018-02-23T05:12:51.502Z,37.35
2018-02-23T05:15:20.609Z,26.70
2018-02-23T05:17:48.934Z,29.37
2018-02-23T05:20:17.347Z,30.52
2018-02-23T05:22:45.680Z,32.45
2018-02-23T05:25:13.980Z,31.77
2018-02-23T05:27:42.358Z,28.80
2018-02-23T05:30:10.699Z,32.28
2018-02-23T05:32:39.072Z,32.15
2018-02-23T05:35:07.363Z,30.37
2018-02-23T05:37:35.675Z,34.25
2018-02-23T05:40:04.002Z,32.42
2018-02-23T05:42:32.401Z,33.33
2018-02-23T05:45:00.738Z,27.02
2018-02-23T05:47:29.054Z,37.60
2018-02-23T05:49:57.388Z,31.05
2018-02-23T05:52:25.698Z,42.60
2018-02-23T05:54:54.006Z,28.95
2018-02-23T05:57:22.308Z,31.55
2018-02-23T05:59:51.395Z,33.75
2018-02-23T06:02:20.475Z,33.55
2018-02-23T06:04:48.847Z,32.90
2018-02-23T06:07:17.218Z,31.35
2018-02-23T06:09:45.568Z,31.55
2018-02-23T06:12:13.924Z,30.48
2018-02-23T06:14:42.252Z,34.97
2018-02-23T06:17:16.202Z,29.12
2018-02-23T06:19:50.041Z,32.33
2018-02-23T06:22:18.362Z,39.13
2018-02-23T06:24:46.679Z,29.08
2018-02-23T06:27:15.007Z,33.72
2018-02-23T06:29:43.390Z,33.15
2018-02-23T06:32:11.739Z,38.17
2018-02-23T06:34:40.119Z,34.63
2018-02-23T06:37:08.537Z,33.90
2018-02-23T06:39:36.977Z,35.03
2018-02-23T06:42:05.338Z,37.03
2018-02-23T06:44:33.652Z,37.97
2018-02-23T06:47:07.422Z,35.65
2018-02-23T06:49:35.743Z,30.62
2018-02-23T06:52:04.095Z,33.85
2018-02-23T06:54:33.010Z,35.42
2018-02-23T06:57:01.289Z,29.83
2018-02-23T06:59:30.385Z,32.45
2018-02-23T07:01:58.734Z,38.92
2018-02-23T07:04:27.081Z,36.90
2018-02-23T07:06:55.431Z,35.75
2018-02-23T07:09:23.789Z,39.10
2018-02-23T07:11:52.960Z,37.72
2018-02-23T07:14:21.266Z,37.85
2018-02-23T07:16:49.600Z,35.92
2018-02-23T07:19:17.929Z,41.17
2018-02-23T07:21:47.082Z,42.97
2018-02-23T07:24:15.418Z,42.35
2018-02-23T07:26:44.511Z,37.88
2018-02-23T07:29:12.862Z,41.72
2018-02-23T07:31:41.212Z,41.78
2018-02-23T07:34:09.555Z,37.53
2018-02-23T07:36:37.983Z,36.83
2018-02-23T07:39:06.335Z,35.60
2018-02-23T07:44:09.261Z,44.08
2018-02-23T07:46:37.600Z,40.28
2018-02-23T07:49:05.927Z,36.92
2018-02-23T07:51:34.238Z,42.75
2018-02-23T07:54:03.315Z,37.40
2018-02-23T07:56:32.408Z,38.28
2018-02-23T07:59:01.454Z,39.72
2018-02-23T08:01:29.812Z,34.70
2018-02-23T08:03:58.118Z,40.08
2018-02-23T08:06:26.455Z,34.47
2018-02-23T08:08:54.852Z,53.15
2018-02-23T08:11:23.188Z,44.75
2018-02-23T08:13:51.485Z,32.58
2018-02-23T08:16:20.612Z,41.35
2018-02-23T08:18:48.954Z,37.35
2018-02-23T08:21:18.096Z,47.08
2018-02-23T08:23:46.461Z,38.15
2018-02-23T08:26:14.860Z,36.05
2018-02-23T08:28:43.212Z,41.60
2018-02-23T08:31:11.621Z,33.08
2018-02-23T08:33:40.012Z,40.80
2018-02-23T08:36:08.412Z,37.45
2018-02-23T08:38:37.553Z,34.72
2018-02-23T08:41:05.881Z,35.55
2018-02-23T08:43:34.184Z,33.45
2018-02-23T08:46:02.488Z,44.20
2018-02-23T08:48:30.828Z,40.70
2018-02-23T08:50:59.127Z,37.47
2018-02-23T08:53:27.518Z,35.05
2018-02-23T08:55:55.866Z,39.13
2018-02-23T08:58:24.222Z,41.00
2018-02-23T09:00:53.313Z,38.78
2018-02-23T09:03:21.729Z,35.10
2018-02-23T09:05:50.111Z,43.40
2018-02-23T09:08:18.577Z,45.47
2018-02-23T09:10:46.972Z,33.03
2018-02-23T09:13:15.336Z,36.95
2018-02-23T09:15:43.689Z,40.03
2018-02-23T09:18:12.788Z,33.50
2018-02-23T09:20:41.908Z,40.35
2018-02-23T09:23:10.263Z,42.53
2018-02-23T09:25:39.391Z,44.97
2018-02-23T09:28:07.767Z,32.88
2018-02-23T09:30:36.136Z,34.20
2018-02-23T09:33:04.538Z,29.98
2018-02-23T09:35:32.914Z,34.35
2018-02-23T09:38:01.285Z,36.53
2018-02-23T09:40:29.642Z,44.65
2018-02-23T09:42:57.972Z,31.70
2018-02-23T09:45:26.274Z,38.13
2018-02-23T09:47:55.333Z,36.13
2018-02-23T09:50:23.671Z,39.67
2018-02-23T09:52:52.009Z,33.78
2018-02-23T09:55:20.400Z,34.47
2018-02-23T09:57:49.516Z,33.35
2018-02-23T10:00:18.637Z,30.98
2018-02-23T10:02:46.974Z,37.33
2018-02-23T10:05:16.143Z,40.12
2018-02-23T10:07:44.547Z,37.25
2018-02-23T10:10:13.736Z,32.97
2018-02-23T10:12:42.075Z,35.95
2018-02-23T10:15:10.423Z,31.05
2018-02-23T10:17:38.774Z,38.28
2018-02-23T10:20:07.131Z,41.67
2018-02-23T10:22:35.474Z,32.45
2018-02-23T10:25:03.810Z,34.70
2018-02-23T10:27:33.005Z,27.52
2018-02-23T10:30:01.344Z,31.60
2018-02-23T10:32:29.772Z,32.65
2018-02-23T10:34:58.193Z,40.80
2018-02-23T10:37:26.580Z,33.38
2018-02-23T10:39:55.718Z,33.70
2018-02-23T10:42:24.818Z,34.67
2018-02-23T10:44:53.907Z,37.22
2018-02-23T10:47:23.008Z,35.33
2018-02-23T10:49:52.163Z,37.80
2018-02-23T10:52:20.538Z,34.67
2018-02-23T10:54:48.948Z,36.75
2018-02-23T10:57:17.341Z,33.45
2018-02-23T10:59:46.479Z,28.98
2018-02-23T11:02:14.819Z,31.05
2018-02-23T11:04:44.027Z,32.47
2018-02-23T11:07:12.494Z,30.50
2018-02-23T11:09:41.683Z,35.08
2018-02-23T11:12:10.871Z,30.90
2018-02-23T11:14:39.321Z,24.73
2018-02-23T11:17:07.782Z,26.10
2018-02-23T11:19:36.173Z,28.80
2018-02-23T11:22:04.517Z,27.57
2018-02-23T11:24:32.941Z,27.23
2018-02-23T11:27:01.382Z,28.20
2018-02-23T11:29:29.845Z,32.70
2018-02-23T11:31:59.074Z,30.37
2018-02-23T11:34:27.491Z,25.20
2018-02-23T11:36:55.904Z,30.90
2018-02-23T11:39:25.094Z,23.53
2018-02-23T11:41:54.299Z,25.80
2018-02-23T11:44:23.437Z,26.93
2018-02-23T11:46:51.805Z,28.13
2018-02-23T11:49:20.247Z,27.53
2018-02-23T11:51:49.452Z,27.40
2018-02-23T11:54:18.714Z,26.70
2018-02-23T11:56:47.115Z,28.90
2018-02-23T11:59:15.645Z,31.73
2018-02-23T12:01:44.088Z,29.53
2018-02-23T12:04:13.333Z,25.17
2018-02-23T12:06:41.812Z,27.13
2018-02-23T12:09:10.343Z,24.53
2018-02-23T12:11:38.880Z,24.63
2018-02-23T12:14:07.405Z,22.33
2018-02-23T12:16:36.748Z,25.90
2018-02-23T12:19:07.222Z,27.87
2018-02-23T12:21:35.743Z,25.43
2018-02-23T12:24:04.173Z,25.00
2018-02-23T12:26:32.636Z,24.20
2018-02-23T12:29:01.080Z,28.10
2018-02-23T12:31:29.501Z,25.47
2018-02-23T12:33:57.935Z,26.63
2018-02-23T12:36:27.144Z,26.20
2018-02-23T12:38:55.519Z,30.03
2018-02-23T12:41:23.855Z,30.37
2018-02-23T12:43:52.136Z,38.30
2018-02-23T12:46:20.448Z,28.00
2018-02-23T12:48:48.747Z,28.47
2018-02-23T12:51:17.062Z,26.83
2018-02-23T12:53:45.385Z,29.10
2018-02-23T12:56:13.798Z,25.90
2018-02-23T12:58:42.135Z,29.73
2018-02-23T13:01:10.475Z,27.30
2018-02-23T13:03:38.790Z,30.37
2018-02-23T13:06:07.115Z,27.43
2018-02-23T13:08:35.414Z,33.53
2018-02-23T13:11:03.749Z,31.30
2018-02-23T13:13:32.079Z,27.30
2018-02-23T13:16:01.188Z,28.63
2018-02-23T13:18:29.518Z,24.63
2018-02-23T13:20:57.837Z,26.63
2018-02-23T13:23:27.073Z,44.17
2018-02-23T13:25:55.400Z,26.50
2018-02-23T13:28:30.068Z,27.27
2018-02-23T13:30:58.413Z,27.20
2018-02-23T13:33:26.751Z,32.73
2018-02-23T13:35:55.062Z,27.50
2018-02-23T13:38:24.167Z,29.23
2018-02-23T13:40:59.234Z,28.77
2018-02-23T13:43:27.554Z,26.17
2018-02-23T13:45:55.827Z,28.73
2018-02-23T13:48:24.140Z,29.47
2018-02-23T13:50:52.513Z,30.10
2018-02-23T13:53:20.913Z,30.50
2018-02-23T13:55:49.301Z,27.53
2018-02-23T13:58:17.647Z,25.27
2018-02-23T14:00:46.008Z,29.60
2018-02-23T14:03:15.130Z,25.50
2018-02-23T14:05:46.208Z,27.37
2018-02-23T14:08:14.586Z,29.27
2018-02-23T14:10:42.907Z,25.07
2018-02-23T14:13:11.979Z,28.50
2018-02-23T14:15:40.349Z,25.70
2018-02-23T14:18:08.676Z,25.63
2018-02-23T14:20:37.081Z,26.53
2018-02-23T14:23:05.599Z,24.20
2018-02-23T14:25:33.935Z,23.73
2018-02-23T14:28:02.185Z,25.53
2018-02-23T14:30:30.448Z,26.00
2018-02-23T14:33:00.957Z,29.93
2018-02-23T14:35:29.836Z,26.07
2018-02-23T14:37:59.262Z,24.03
2018-02-23T14:40:28.359Z,22.80
2018-02-23T14:42:57.435Z,22.47
2018-02-23T14:45:25.840Z,23.80
2018-02-23T14:47:54.841Z,28.03
2018-02-23T14:50:40.761Z,23.50
2018-02-23T14:53:09.026Z,25.17
2018-02-23T14:55:37.271Z,25.90
2018-02-23T14:58:06.680Z,24.63
2018-02-23T15:00:34.975Z,29.53
2018-02-23T15:03:03.284Z,24.73
2018-02-23T15:05:31.519Z,24.43
2018-02-23T15:07:59.913Z,25.57
2018-02-23T15:10:28.156Z,23.40
2018-02-23T15:12:57.180Z,24.80
2018-02-23T15:15:25.417Z,25.33
2018-02-23T15:17:54.431Z,25.53
2018-02-23T15:20:22.680Z,26.00
2018-02-23T15:22:51.704Z,27.10
2018-02-23T15:25:19.940Z,28.87
2018-02-23T15:27:48.203Z,25.30
2018-02-23T15:30:34.153Z,22.53
2018-02-23T15:33:02.412Z,24.27
2018-02-23T15:35:30.656Z,25.27
2018-02-23T15:37:58.916Z,24.90
2018-02-23T15:40:27.157Z,25.73
2018-02-23T15:42:55.426Z,28.43
2018-02-23T15:45:23.674Z,29.23
2018-02-23T15:47:54.476Z,28.60
2018-02-23T15:53:32.049Z,30.60
2018-02-23T15:56:00.295Z,29.87
2018-02-23T15:58:44.953Z,32.03
2018-02-23T16:01:13.965Z,27.23
2018-02-23T16:03:42.443Z,31.93
2018-02-23T16:06:10.699Z,28.30
2018-02-23T16:08:39.722Z,32.25
2018-02-23T16:11:07.973Z,37.85
2018-02-23T16:13:37.007Z,31.25
2018-02-23T16:16:05.260Z,30.17
2018-02-23T16:18:33.524Z,35.45
2018-02-23T16:21:01.777Z,35.42
2018-02-23T16:23:30.034Z,32.05
2018-02-23T16:25:58.278Z,29.02
2018-02-23T16:28:26.533Z,29.17
2018-02-23T16:30:54.783Z,34.50
2018-02-23T16:33:23.806Z,37.97
2018-02-23T16:35:52.053Z,32.38
2018-02-23T16:38:21.092Z,33.40
2018-02-23T16:40:49.353Z,32.58
2018-02-23T16:43:17.627Z,28.25
2018-02-23T16:45:45.890Z,33.38
2018-02-23T16:48:14.923Z,31.45
2018-02-23T16:50:43.181Z,33.58
2018-02-23T16:53:11.445Z,35.28
2018-02-23T16:55:39.699Z,34.75
2018-02-23T16:58:08.730Z,34.40
2018-02-23T17:00:36.974Z,32.35
2018-02-23T17:03:06.008Z,37.20
2018-02-23T17:05:34.265Z,36.17
2018-02-23T17:08:02.519Z,34.65
2018-02-23T17:10:31.551Z,35.05
2018-02-23T17:12:59.810Z,33.22
2018-02-23T17:15:28.055Z,33.75
2018-02-23T17:17:57.083Z,32.13
2018-02-23T17:20:25.341Z,31.30
2018-02-23T17:22:54.363Z,38.08
2018-02-23T17:25:22.628Z,28.75
2018-02-23T17:27:50.890Z,33.42
2018-02-23T17:30:19.142Z,31.85
2018-02-23T17:32:48.171Z,42.38
2018-02-23T17:35:16.427Z,33.75
2018-02-23T17:37:44.690Z,34.53
2018-02-23T17:40:13.711Z,39.92
2018-02-23T17:42:41.974Z,36.03
2018-02-23T17:45:10.232Z,41.58
2018-02-23T17:47:39.266Z,32.05
2018-02-23T17:50:07.523Z,41.13
2018-02-23T17:52:35.783Z,37.22
2018-02-23T17:55:04.894Z,44.83
2018-02-23T17:57:33.150Z,41.13
2018-02-23T18:00:02.166Z,35.88
2018-02-23T18:02:30.428Z,40.15
2018-02-23T18:04:59.453Z,41.80
2018-02-23T18:07:27.707Z,36.28
2018-02-23T18:09:55.957Z,45.03
2018-02-23T18:12:24.990Z,48.42
2018-02-23T18:14:53.241Z,51.00
2018-02-23T18:17:22.272Z,43.03
2018-02-23T18:19:50.523Z,40.00
2018-02-23T18:22:18.792Z,35.33
2018-02-23T18:24:47.051Z,44.67
2018-02-23T18:27:16.069Z,43.50
2018-02-23T18:29:44.330Z,42.88
2018-02-23T18:32:13.350Z,43.97
2018-02-23T18:34:41.605Z,42.22
2018-02-23T18:37:09.854Z,38.70
2018-02-23T18:39:38.114Z,47.08
2018-02-23T18:42:06.372Z,43.72
2018-02-23T18:44:34.631Z,42.75
2018-02-23T18:47:02.883Z,40.50
2018-02-23T18:49:31.151Z,43.67
2018-02-23T18:52:00.167Z,36.55
2018-02-23T18:54:28.421Z,45.95
2018-02-23T18:56:57.444Z,47.55
2018-02-23T18:59:25.707Z,45.88
2018-02-23T19:01:53.949Z,37.90
2018-02-23T19:04:22.984Z,46.97
2018-02-23T19:06:51.237Z,39.30
2018-02-23T19:09:20.267Z,44.03
2018-02-23T19:11:48.522Z,38.80
2018-02-23T19:14:16.781Z,38.80
2018-02-23T19:16:45.039Z,44.58
2018-02-23T19:19:14.121Z,41.10
2018-02-23T19:21:42.323Z,38.50
2018-02-23T19:24:10.598Z,39.20
2018-02-23T19:26:39.619Z,41.05
2018-02-23T19:29:07.874Z,39.78
2018-02-23T19:31:36.127Z,43.50
2018-02-23T19:34:05.197Z,35.20
2018-02-23T19:36:33.410Z,40.55
2018-02-23T19:39:02.449Z,44.08
2018-02-23T19:41:30.695Z,41.90
2018-02-23T19:43:58.955Z,44.10
2018-02-23T19:46:27.975Z,39.67
2018-02-23T19:48:56.237Z,42.38
2018-02-23T19:51:24.485Z,40.35
2018-02-23T19:53:53.502Z,45.75
2018-02-23T19:56:21.762Z,34.83
2018-02-23T19:58:50.778Z,38.80
2018-02-23T20:01:19.028Z,36.15
2018-02-23T20:03:48.045Z,39.88
2018-02-23T20:06:16.314Z,37.63
2018-02-23T20:08:45.325Z,38.35
2018-02-23T20:11:13.578Z,41.60
2018-02-23T20:13:41.825Z,30.62
2018-02-23T20:16:10.103Z,46.33
2018-02-23T20:18:38.363Z,37.80
2018-02-23T20:21:06.619Z,40.08
2018-02-23T20:23:34.873Z,40.22
2018-02-23T20:26:03.159Z,41.63
2018-02-23T20:28:31.408Z,35.42
2018-02-23T20:31:00.437Z,37.58
2018-02-23T20:33:28.685Z,36.25
2018-02-23T20:35:56.937Z,39.40
2018-02-23T20:38:25.955Z,39.30
2018-02-23T20:40:54.201Z,39.13
2018-02-23T20:43:23.222Z,30.15
2018-02-23T20:45:51.478Z,41.65
2018-02-23T20:48:20.504Z,35.50
2018-02-23T20:50:48.748Z,32.97
2018-02-23T20:53:17.775Z,42.13
2018-02-23T20:55:46.024Z,31.40
2018-02-23T20:58:15.051Z,38.97
2018-02-23T21:00:43.306Z,37.13
2018-02-23T21:03:11.566Z,33.95
2018-02-23T21:05:40.589Z,42.62
2018-02-23T21:08:08.860Z,40.85
2018-02-23T21:10:37.111Z,31.50
2018-02-23T21:13:06.134Z,32.08
2018-02-23T21:15:34.381Z,32.40
2018-02-23T21:18:03.407Z,34.85
2018-02-23T21:20:31.654Z,33.03
2018-02-23T21:22:59.916Z,33.92
2018-02-23T21:25:28.940Z,44.67
2018-02-23T21:27:57.198Z,36.38
2018-02-23T21:30:26.224Z,38.22
2018-02-23T21:32:54.488Z,40.33
2018-02-23T21:35:22.745Z,43.65
2018-02-23T21:37:50.991Z,39.75
2018-02-23T21:40:19.253Z,44.58
2018-02-23T21:42:47.498Z,40.88
2018-02-23T21:45:15.756Z,38.28
2018-02-23T21:47:44.028Z,35.45
2018-02-23T21:50:13.036Z,38.67
2018-02-23T21:52:41.292Z,37.22
2018-02-23T21:55:09.555Z,38.92
2018-02-23T21:57:38.570Z,37.47
2018-02-23T22:00:06.835Z,34.13
2018-02-23T22:02:35.095Z,40.83
2018-02-23T22:05:04.118Z,42.38
2018-02-23T22:07:32.373Z,36.22
2018-02-23T22:10:01.399Z,38.42
2018-02-23T22:12:29.651Z,36.72
2018-02-23T22:14:57.906Z,40.00
2018-02-23T22:17:26.923Z,37.33
2018-02-23T22:19:55.190Z,37.50
2018-02-23T22:22:24.204Z,37.58
2018-02-23T22:24:52.472Z,36.60
2018-02-23T22:27:20.713Z,41.90
2018-02-23T22:29:49.738Z,34.42
2018-02-23T22:32:17.993Z,33.80
2018-02-23T22:34:47.014Z,40.15
2018-02-23T22:37:15.269Z,40.40
2018-02-23T22:39:43.531Z,38.83
2018-02-23T22:42:12.555Z,36.05
2018-02-23T22:44:40.818Z,34.58
2018-02-23T22:47:09.077Z,43.00
2018-02-23T22:49:38.086Z,42.75
2018-02-23T22:52:06.350Z,39.08
2018-02-23T22:54:35.360Z,40.00
2018-02-23T22:57:03.617Z,43.50
2018-02-23T22:59:32.650Z,41.05
2018-02-23T23:02:00.916Z,40.72
2018-02-23T23:04:29.179Z,40.00
2018-02-23T23:06:57.437Z,44.25
2018-02-23T23:09:26.454Z,38.45
2018-02-23T23:11:54.713Z,43.42
2018-02-23T23:14:23.728Z,42.00
2018-02-23T23:16:51.982Z,38.72
2018-02-23T23:19:21.001Z,42.25
2018-02-23T23:21:49.272Z,38.72
2018-02-23T23:24:17.509Z,42.22
2018-02-23T23:26:46.530Z,48.20
2018-02-23T23:29:14.791Z,41.53
2018-02-23T23:31:43.808Z,45.22
2018-02-23T23:34:12.059Z,46.42
2018-02-23T23:36:41.080Z,43.22
2018-02-23T23:39:09.343Z,39.45
2018-02-23T23:41:37.591Z,40.55
2018-02-23T23:44:06.614Z,39.50
2018-02-23T23:46:34.862Z,41.67
2018-02-23T23:49:04.639Z,40.08
2018-02-23T23:51:32.889Z,42.80
2018-02-23T23:54:01.150Z,43.85
2018-02-23T23:56:29.398Z,46.75
2018-02-23T23:58:58.421Z,48.22
